createdAt,value
2019-03-27T00:00:10.318Z,7.50
2019-03-27T00:02:39.100Z,7.60
2019-03-27T00:05:07.872Z,7.50
2019-03-27T00:07:36.744Z,7.50
2019-03-27T00:10:07.960Z,7.50
2019-03-27T00:12:37.754Z,7.70
2019-03-27T00:15:13.134Z,7.80
2019-03-27T00:17:40.549Z,7.80
2019-03-27T00:20:09.501Z,7.80
2019-03-27T00:22:38.374Z,7.80
2019-03-27T00:25:09.824Z,8.00
2019-03-27T00:27:38.593Z,8.00
2019-03-27T00:30:08.633Z,8.00
2019-03-27T00:32:37.446Z,8.00
2019-03-27T00:35:07.220Z,8.00
2019-03-27T00:37:36.062Z,7.90
2019-03-27T00:40:08.140Z,7.80
2019-03-27T00:42:36.920Z,7.60
2019-03-27T00:45:09.629Z,7.40
2019-03-27T00:47:38.474Z,7.50
2019-03-27T00:50:07.979Z,7.50
2019-03-27T00:52:36.787Z,7.60
2019-03-27T00:55:06.470Z,7.60
2019-03-27T00:57:35.251Z,7.60
2019-03-27T01:00:19.113Z,7.60
2019-03-27T01:02:47.883Z,7.60
2019-03-27T01:05:16.663Z,7.30
2019-03-27T01:07:45.458Z,7.00
2019-03-27T01:10:14.318Z,6.80
2019-03-27T01:12:43.091Z,6.80
2019-03-27T01:15:11.889Z,6.80
2019-03-27T01:17:40.725Z,6.90
2019-03-27T01:20:09.500Z,6.90
2019-03-27T01:22:38.299Z,6.90
2019-03-27T01:25:07.154Z,6.70
2019-03-27T01:27:35.982Z,6.80
2019-03-27T01:30:05.634Z,6.80
2019-03-27T01:32:34.412Z,6.80
2019-03-27T01:35:03.538Z,6.70
2019-03-27T01:37:32.333Z,6.60
2019-03-27T01:40:01.125Z,6.70
2019-03-27T01:42:29.907Z,6.80
2019-03-27T01:44:58.709Z,6.60
2019-03-27T01:47:27.473Z,6.50
2019-03-27T01:49:56.245Z,6.30
2019-03-27T01:52:25.039Z,6.20
2019-03-27T01:54:55.949Z,6.20
2019-03-27T01:57:25.113Z,6.10
2019-03-27T01:59:54.064Z,6.10
2019-03-27T02:02:22.904Z,6.20
2019-03-27T02:04:51.687Z,6.20
2019-03-27T02:07:20.498Z,6.20
2019-03-27T02:09:49.264Z,6.20
2019-03-27T02:12:18.033Z,6.10
2019-03-27T02:14:46.841Z,6.10
2019-03-27T02:17:15.710Z,6.10
2019-03-27T02:19:44.840Z,6.20
2019-03-27T02:22:13.934Z,6.10
2019-03-27T02:24:42.769Z,5.90
2019-03-27T02:27:11.546Z,5.80
2019-03-27T02:29:40.414Z,5.90
2019-03-27T02:32:09.183Z,5.90
2019-03-27T02:34:38.016Z,5.80
2019-03-27T02:37:07.208Z,6.00
2019-03-27T02:39:36.045Z,5.90
2019-03-27T02:42:04.914Z,5.90
2019-03-27T02:44:33.813Z,6.00
2019-03-27T02:47:02.659Z,5.90
2019-03-27T02:49:31.438Z,5.80
2019-03-27T02:52:00.530Z,5.80
2019-03-27T02:54:29.331Z,5.80
2019-03-27T02:56:58.170Z,5.80
2019-03-27T02:59:26.988Z,5.80
2019-03-27T03:01:55.838Z,5.80
2019-03-27T03:04:24.685Z,6.10
2019-03-27T03:06:53.510Z,6.20
2019-03-27T03:09:22.364Z,6.20
2019-03-27T03:11:51.466Z,6.20
2019-03-27T03:14:20.345Z,6.40
2019-03-27T03:16:49.116Z,6.40
2019-03-27T03:19:17.893Z,6.30
2019-03-27T03:21:46.861Z,6.20
2019-03-27T03:24:15.656Z,6.10
2019-03-27T03:26:44.511Z,6.00
2019-03-27T03:29:13.319Z,6.00
2019-03-27T03:31:42.398Z,6.20
2019-03-27T03:34:11.241Z,6.30
2019-03-27T03:36:40.143Z,6.30
2019-03-27T03:39:08.963Z,6.30
2019-03-27T03:41:37.755Z,6.30
2019-03-27T03:44:06.953Z,6.30
2019-03-27T03:46:36.058Z,6.30
2019-03-27T03:49:04.904Z,6.30
2019-03-27T03:51:34.044Z,6.20
2019-03-27T03:54:03.297Z,6.10
2019-03-27T03:56:32.586Z,6.20
2019-03-27T03:59:01.404Z,6.50
2019-03-27T04:01:30.241Z,6.70
2019-03-27T04:03:59.087Z,6.80
2019-03-27T04:06:27.885Z,6.70
2019-03-27T04:08:56.658Z,6.70
2019-03-27T04:11:25.437Z,6.70
2019-03-27T04:13:54.255Z,6.70
2019-03-27T04:16:23.106Z,6.70
2019-03-27T04:18:51.957Z,6.70
2019-03-27T04:21:21.744Z,6.80
2019-03-27T04:23:50.781Z,6.80
2019-03-27T04:26:19.873Z,6.70
2019-03-27T04:28:48.677Z,6.70
2019-03-27T04:31:17.445Z,6.60
2019-03-27T04:33:46.643Z,6.60
2019-03-27T04:36:15.517Z,6.60
2019-03-27T04:38:44.433Z,6.70
2019-03-27T04:41:13.318Z,6.80
2019-03-27T04:43:42.197Z,6.90
2019-03-27T04:46:11.308Z,7.00
2019-03-27T04:48:40.411Z,7.00
2019-03-27T04:51:09.196Z,6.90
2019-03-27T04:53:37.969Z,6.80
2019-03-27T04:56:06.749Z,7.00
2019-03-27T04:58:35.873Z,7.00
2019-03-27T05:01:04.653Z,7.20
2019-03-27T05:03:33.758Z,7.20
2019-03-27T05:06:02.564Z,7.00
2019-03-27T05:08:31.393Z,7.00
2019-03-27T05:11:00.164Z,7.10
2019-03-27T05:13:28.953Z,7.10
2019-03-27T05:15:57.885Z,7.10
2019-03-27T05:18:26.664Z,7.30
2019-03-27T05:20:55.564Z,7.40
2019-03-27T05:23:24.338Z,7.40
2019-03-27T05:25:53.191Z,7.40
2019-03-27T05:28:22.066Z,7.50
2019-03-27T05:30:50.855Z,7.60
2019-03-27T05:33:19.635Z,7.50
2019-03-27T05:35:48.756Z,7.50
2019-03-27T05:38:17.842Z,7.40
2019-03-27T05:40:46.650Z,7.30
2019-03-27T05:43:15.516Z,7.20
2019-03-27T05:45:44.306Z,7.30
2019-03-27T05:48:13.142Z,7.30
2019-03-27T05:50:42.296Z,7.30
2019-03-27T05:53:11.405Z,7.40
2019-03-27T05:55:40.179Z,7.50
2019-03-27T05:58:09.009Z,7.60
2019-03-27T06:00:37.846Z,7.60
2019-03-27T06:03:06.842Z,7.50
2019-03-27T06:05:35.662Z,7.30
2019-03-27T06:08:04.522Z,7.00
2019-03-27T06:10:33.373Z,6.90
2019-03-27T06:13:02.170Z,7.00
2019-03-27T06:15:30.946Z,7.20
2019-03-27T06:18:12.586Z,7.30
2019-03-27T06:20:30.629Z,7.50
2019-03-27T06:22:59.404Z,7.70
2019-03-27T06:25:28.153Z,7.80
2019-03-27T06:27:56.953Z,7.80
2019-03-27T06:30:26.128Z,7.70
2019-03-27T06:32:54.993Z,7.70
2019-03-27T06:35:23.873Z,7.80
2019-03-27T06:37:52.714Z,8.00
2019-03-27T06:40:21.486Z,8.10
2019-03-27T06:42:50.277Z,8.20
2019-03-27T06:45:19.056Z,8.10
2019-03-27T06:47:47.907Z,8.10
2019-03-27T06:50:17.152Z,8.30
2019-03-27T06:52:46.250Z,8.60
2019-03-27T06:55:15.100Z,8.80
2019-03-27T06:57:43.991Z,8.90
2019-03-27T07:00:13.133Z,9.10
2019-03-27T07:02:41.979Z,9.20
2019-03-27T07:05:10.773Z,9.40
2019-03-27T07:07:39.548Z,9.20
2019-03-27T07:10:08.327Z,9.20
2019-03-27T07:12:37.124Z,9.20
2019-03-27T07:15:06.286Z,9.00
2019-03-27T07:17:35.631Z,9.00
2019-03-27T07:20:06.269Z,9.30
2019-03-27T07:22:35.055Z,9.50
2019-03-27T07:25:06.566Z,9.60
2019-03-27T07:27:35.348Z,9.60
2019-03-27T07:30:05.186Z,9.60
2019-03-27T07:32:33.945Z,9.80
2019-03-27T07:35:02.812Z,9.90
2019-03-27T07:37:31.594Z,10.10
2019-03-27T07:40:00.737Z,10.10
2019-03-27T07:42:29.971Z,10.00
2019-03-27T07:44:58.738Z,9.80
2019-03-27T07:47:27.813Z,9.70
2019-03-27T07:49:56.609Z,9.70
2019-03-27T07:52:25.406Z,9.60
2019-03-27T07:54:54.218Z,9.50
2019-03-27T07:57:23.080Z,9.40
2019-03-27T07:59:52.268Z,9.40
2019-03-27T08:02:21.134Z,9.60
2019-03-27T08:04:49.930Z,9.90
2019-03-27T08:07:26.679Z,9.90
2019-03-27T08:09:49.252Z,10.00
2019-03-27T08:12:18.065Z,10.30
2019-03-27T08:14:46.941Z,10.60
2019-03-27T08:17:15.714Z,10.60
2019-03-27T08:19:44.518Z,10.60
2019-03-27T08:22:13.641Z,10.60
2019-03-27T08:24:42.419Z,10.60
2019-03-27T08:27:14.358Z,11.00
2019-03-27T08:29:41.690Z,11.20
2019-03-27T08:32:10.474Z,11.60
2019-03-27T08:34:39.285Z,11.50
2019-03-27T08:37:08.075Z,11.60
2019-03-27T08:39:36.916Z,12.00
2019-03-27T08:42:06.001Z,12.40
2019-03-27T08:44:34.771Z,12.40
2019-03-27T08:47:03.563Z,12.70
2019-03-27T08:49:32.438Z,13.50
2019-03-27T08:52:01.210Z,14.00
2019-03-27T08:54:29.984Z,14.60
2019-03-27T08:56:58.783Z,14.90
2019-03-27T08:59:27.633Z,15.20
2019-03-27T09:01:56.402Z,15.60
2019-03-27T09:04:25.545Z,16.10
2019-03-27T09:06:54.397Z,16.90
2019-03-27T09:09:23.181Z,16.70
2019-03-27T09:11:52.308Z,17.00
2019-03-27T09:14:21.173Z,17.50
2019-03-27T09:16:50.014Z,17.80
2019-03-27T09:19:18.818Z,18.00
2019-03-27T09:21:47.974Z,18.90
2019-03-27T09:24:16.741Z,20.40
2019-03-27T09:26:45.537Z,20.90
2019-03-27T09:29:14.322Z,21.00
2019-03-27T09:31:45.146Z,20.40
2019-03-27T09:34:13.585Z,20.80
2019-03-27T09:36:42.368Z,20.30
2019-03-27T09:39:11.218Z,20.20
2019-03-27T09:41:40.090Z,20.70
2019-03-27T09:44:08.858Z,20.90
2019-03-27T09:46:37.640Z,21.30
2019-03-27T09:49:06.448Z,22.30
2019-03-27T09:51:35.220Z,24.30
2019-03-27T09:54:04.067Z,24.40
2019-03-27T09:56:32.869Z,25.70
2019-03-27T09:59:02.277Z,26.20
2019-03-27T10:01:31.065Z,25.90
2019-03-27T10:04:00.276Z,25.70
2019-03-27T10:06:29.796Z,25.50
2019-03-27T10:08:58.882Z,23.80
2019-03-27T10:11:27.987Z,21.80
2019-03-27T10:13:56.826Z,19.80
2019-03-27T10:16:25.596Z,19.30
2019-03-27T10:18:54.466Z,18.70
2019-03-27T10:21:23.238Z,18.10
2019-03-27T10:23:52.017Z,18.10
2019-03-27T10:26:20.829Z,18.30
2019-03-27T10:28:49.596Z,18.20
2019-03-27T10:31:18.375Z,17.90
2019-03-27T10:33:47.191Z,18.20
2019-03-27T10:36:16.029Z,18.10
2019-03-27T10:38:44.819Z,18.50
2019-03-27T10:41:13.697Z,18.60
2019-03-27T10:43:42.548Z,19.20
2019-03-27T10:46:11.325Z,19.00
2019-03-27T10:48:51.884Z,18.60
2019-03-27T10:51:10.617Z,18.30
2019-03-27T10:53:39.386Z,18.30
2019-03-27T10:56:08.183Z,19.60
2019-03-27T10:58:36.970Z,19.50
2019-03-27T11:01:07.457Z,18.90
2019-03-27T11:03:36.568Z,17.90
2019-03-27T11:06:05.849Z,16.80
2019-03-27T11:08:34.626Z,16.00
2019-03-27T11:11:03.491Z,15.40
2019-03-27T11:13:34.375Z,14.80
2019-03-27T11:16:02.799Z,14.30
2019-03-27T11:18:31.602Z,14.00
2019-03-27T11:21:00.381Z,13.80
2019-03-27T11:23:29.155Z,13.60
2019-03-27T11:25:57.953Z,13.60
2019-03-27T11:28:26.734Z,13.60
2019-03-27T11:30:55.510Z,13.80
2019-03-27T11:33:24.319Z,14.20
2019-03-27T11:35:53.179Z,14.40
2019-03-27T11:38:22.024Z,14.80
2019-03-27T11:40:50.845Z,14.90
2019-03-27T11:43:19.694Z,15.20
2019-03-27T11:45:48.921Z,15.70
2019-03-27T11:48:18.018Z,16.10
2019-03-27T11:50:46.862Z,16.60
2019-03-27T11:53:15.647Z,16.30
2019-03-27T11:55:44.450Z,15.90
2019-03-27T11:58:14.910Z,15.90
2019-03-27T12:00:54.380Z,15.90
2019-03-27T12:03:14.430Z,16.00
2019-03-27T12:05:45.580Z,16.40
2019-03-27T12:08:13.684Z,16.90
2019-03-27T12:10:42.484Z,17.00
2019-03-27T12:13:11.262Z,17.00
2019-03-27T12:15:40.771Z,16.90
2019-03-27T12:18:10.791Z,16.70
2019-03-27T12:20:39.639Z,16.50
2019-03-27T12:23:08.483Z,16.20
2019-03-27T12:25:37.289Z,16.00
2019-03-27T12:28:06.350Z,15.60
2019-03-27T12:30:35.197Z,15.20
2019-03-27T12:33:04.076Z,15.30
2019-03-27T12:35:32.852Z,15.40
2019-03-27T12:38:04.258Z,15.30
2019-03-27T12:40:32.183Z,15.20
2019-03-27T12:43:00.963Z,15.10
2019-03-27T12:45:30.056Z,14.90
2019-03-27T12:47:58.943Z,14.70
2019-03-27T12:50:27.731Z,14.70
2019-03-27T12:52:56.833Z,14.80
2019-03-27T12:55:25.694Z,15.00
2019-03-27T12:57:54.542Z,15.00
2019-03-27T13:00:23.308Z,14.90
2019-03-27T13:02:52.124Z,14.90
2019-03-27T13:05:20.899Z,15.30
2019-03-27T13:07:50.467Z,15.50
2019-03-27T13:10:19.430Z,16.10
2019-03-27T13:12:48.204Z,16.50
2019-03-27T13:15:17.065Z,17.20
2019-03-27T13:17:45.939Z,17.40
2019-03-27T13:20:14.779Z,17.60
2019-03-27T13:22:43.620Z,17.40
2019-03-27T13:25:12.479Z,17.30
2019-03-27T13:27:41.280Z,17.50
2019-03-27T13:30:10.114Z,17.70
2019-03-27T13:32:38.915Z,17.70
2019-03-27T13:35:07.837Z,17.50
2019-03-27T13:37:36.607Z,17.30
2019-03-27T13:40:08.536Z,17.30
2019-03-27T13:42:37.299Z,17.20
2019-03-27T13:45:06.777Z,17.30
2019-03-27T13:47:35.756Z,17.00
2019-03-27T13:50:07.350Z,17.20
2019-03-27T13:52:36.194Z,17.50
2019-03-27T13:55:06.992Z,17.70
2019-03-27T13:57:36.413Z,17.70
2019-03-27T14:00:08.798Z,16.70
2019-03-27T14:02:37.980Z,15.90
2019-03-27T14:05:06.831Z,15.70
2019-03-27T14:07:35.973Z,15.60
2019-03-27T14:10:07.517Z,15.60
2019-03-27T14:12:36.387Z,15.60
2019-03-27T14:15:08.074Z,15.60
2019-03-27T14:17:37.027Z,15.50
2019-03-27T14:20:07.590Z,15.40
2019-03-27T14:22:36.811Z,15.50
2019-03-27T14:25:08.862Z,15.60
2019-03-27T14:27:37.709Z,15.50
2019-03-27T14:30:08.917Z,15.60
2019-03-27T14:32:37.725Z,15.80
2019-03-27T14:35:06.672Z,15.80
2019-03-27T14:37:35.519Z,15.80
2019-03-27T14:40:07.383Z,15.60
2019-03-27T14:42:36.261Z,15.30
2019-03-27T14:45:07.232Z,15.00
2019-03-27T14:47:36.686Z,15.10
2019-03-27T14:50:07.679Z,15.20
2019-03-27T14:52:36.447Z,15.20
2019-03-27T14:55:07.192Z,15.10
2019-03-27T14:57:36.838Z,15.20
2019-03-27T15:00:09.622Z,15.40
2019-03-27T15:02:38.512Z,15.50
2019-03-27T15:05:08.043Z,15.50
2019-03-27T15:07:36.829Z,15.50
2019-03-27T15:10:09.132Z,15.20
2019-03-27T15:12:37.919Z,15.00
2019-03-27T15:15:08.393Z,15.10
2019-03-27T15:17:37.634Z,15.20
2019-03-27T15:20:08.098Z,15.30
2019-03-27T15:22:36.868Z,15.30
2019-03-27T15:25:08.049Z,15.20
2019-03-27T15:27:36.869Z,15.20
2019-03-27T15:30:06.621Z,15.00
2019-03-27T15:32:36.651Z,15.00
2019-03-27T15:35:05.524Z,14.90
2019-03-27T15:37:35.169Z,14.70
2019-03-27T15:40:05.451Z,14.80
2019-03-27T15:42:34.431Z,15.00
2019-03-27T15:45:05.896Z,15.10
2019-03-27T15:47:34.768Z,15.10
2019-03-27T15:50:04.889Z,15.20
2019-03-27T15:52:36.639Z,15.10
2019-03-27T15:55:04.620Z,15.00
2019-03-27T15:57:34.282Z,15.10
2019-03-27T16:00:04.695Z,15.20
2019-03-27T16:02:33.488Z,15.30
2019-03-27T16:05:02.532Z,15.20
2019-03-27T16:07:31.646Z,14.90
2019-03-27T16:10:00.501Z,14.70
2019-03-27T16:12:29.288Z,14.70
2019-03-27T16:14:58.106Z,14.50
2019-03-27T16:17:26.939Z,14.40
2019-03-27T16:19:55.798Z,14.40
2019-03-27T16:22:24.904Z,14.50
2019-03-27T16:24:53.717Z,14.60
2019-03-27T16:27:22.568Z,14.50
2019-03-27T16:29:51.411Z,14.60
2019-03-27T16:32:20.273Z,14.80
2019-03-27T16:34:49.064Z,14.70
2019-03-27T16:37:17.902Z,14.90
2019-03-27T16:39:46.782Z,15.10
2019-03-27T16:42:15.587Z,15.10
2019-03-27T16:44:44.424Z,15.10
2019-03-27T16:47:13.519Z,15.10
2019-03-27T16:49:42.366Z,15.00
2019-03-27T16:52:11.269Z,14.80
2019-03-27T16:54:40.057Z,14.90
2019-03-27T16:57:08.852Z,14.80
2019-03-27T16:59:37.624Z,14.80
2019-03-27T17:02:06.914Z,14.80
2019-03-27T17:04:35.693Z,14.80
2019-03-27T17:07:04.495Z,14.90
2019-03-27T17:09:33.385Z,14.90
2019-03-27T17:12:02.174Z,14.80
2019-03-27T17:14:31.030Z,14.80
2019-03-27T17:16:59.902Z,14.70
2019-03-27T17:19:28.700Z,14.60
2019-03-27T17:21:57.494Z,14.50
2019-03-27T17:24:26.383Z,14.40
2019-03-27T17:26:55.223Z,14.50
2019-03-27T17:29:24.076Z,14.40
2019-03-27T17:31:52.953Z,14.30
2019-03-27T17:34:21.812Z,14.30
2019-03-27T17:36:50.632Z,14.40
2019-03-27T17:39:19.485Z,14.40
2019-03-27T17:41:48.273Z,14.30
2019-03-27T17:44:17.123Z,14.20
2019-03-27T17:46:45.951Z,14.10
2019-03-27T17:49:14.789Z,14.20
2019-03-27T17:51:43.574Z,14.30
2019-03-27T17:54:20.557Z,14.40
2019-03-27T17:56:43.639Z,14.30
2019-03-27T17:59:13.600Z,14.20
2019-03-27T18:01:43.053Z,14.10
2019-03-27T18:04:12.310Z,14.10
2019-03-27T18:06:41.077Z,13.90
2019-03-27T18:09:09.977Z,13.80
2019-03-27T18:11:38.814Z,13.80
2019-03-27T18:14:07.586Z,13.80
2019-03-27T18:16:36.410Z,13.70
2019-03-27T18:19:05.263Z,13.70
2019-03-27T18:21:34.119Z,13.70
2019-03-27T18:24:02.996Z,13.60
2019-03-27T18:26:31.980Z,13.50
2019-03-27T18:29:00.841Z,13.50
2019-03-27T18:31:29.728Z,13.60
2019-03-27T18:33:58.577Z,13.70
2019-03-27T18:36:27.630Z,13.80
2019-03-27T18:38:56.477Z,13.90
2019-03-27T18:41:25.356Z,13.80
2019-03-27T18:43:54.520Z,13.80
2019-03-27T18:46:23.428Z,13.60
2019-03-27T18:48:52.389Z,13.60
2019-03-27T18:51:21.225Z,13.60
2019-03-27T18:53:59.603Z,13.60
2019-03-27T18:56:20.532Z,13.50
2019-03-27T18:58:49.615Z,13.50
2019-03-27T19:01:18.510Z,13.60
2019-03-27T19:03:47.294Z,13.60
2019-03-27T19:06:16.149Z,13.60
2019-03-27T19:08:44.944Z,13.60
2019-03-27T19:11:13.723Z,13.60
2019-03-27T19:13:42.517Z,13.50
2019-03-27T19:16:11.333Z,13.50
2019-03-27T19:18:40.196Z,13.50
2019-03-27T19:21:08.987Z,13.50
2019-03-27T19:23:37.843Z,13.40
2019-03-27T19:26:06.899Z,13.20
2019-03-27T19:28:35.991Z,13.00
2019-03-27T19:31:04.972Z,12.90
2019-03-27T19:33:33.820Z,12.80
2019-03-27T19:36:02.605Z,12.80
2019-03-27T19:38:31.784Z,12.80
2019-03-27T19:41:00.620Z,12.80
2019-03-27T19:43:29.480Z,12.80
2019-03-27T19:45:58.369Z,12.80
2019-03-27T19:48:27.140Z,12.80
2019-03-27T19:50:55.930Z,12.70
2019-03-27T19:53:24.723Z,12.70
2019-03-27T19:55:53.498Z,12.70
2019-03-27T19:58:22.267Z,12.60
2019-03-27T20:00:51.163Z,12.60
2019-03-27T20:03:20.005Z,12.60
2019-03-27T20:05:49.103Z,12.60
2019-03-27T20:08:17.916Z,12.60
2019-03-27T20:10:46.702Z,12.60
2019-03-27T20:13:15.662Z,12.60
2019-03-27T20:15:44.555Z,12.50
2019-03-27T20:18:13.399Z,12.60
2019-03-27T20:20:42.565Z,12.60
2019-03-27T20:23:15.150Z,12.70
2019-03-27T20:25:41.912Z,12.70
2019-03-27T20:28:10.763Z,12.70
2019-03-27T20:30:39.594Z,12.60
2019-03-27T20:33:08.443Z,12.50
2019-03-27T20:35:37.222Z,12.50
2019-03-27T20:38:06.096Z,12.50
2019-03-27T20:40:34.935Z,12.50
2019-03-27T20:43:03.701Z,12.30
2019-03-27T20:45:32.494Z,12.30
2019-03-27T20:48:01.371Z,12.20
2019-03-27T20:50:30.143Z,12.20
2019-03-27T20:52:59.042Z,12.10
2019-03-27T20:55:30.450Z,12.10
2019-03-27T20:57:58.308Z,12.00
2019-03-27T21:00:27.188Z,11.90
2019-03-27T21:02:56.029Z,11.90
2019-03-27T21:05:24.812Z,12.00
2019-03-27T21:07:53.629Z,12.00
2019-03-27T21:10:22.402Z,12.10
2019-03-27T21:12:51.179Z,12.20
2019-03-27T21:15:20.071Z,12.10
2019-03-27T21:17:48.866Z,12.20
2019-03-27T21:20:17.711Z,12.40
2019-03-27T21:22:46.519Z,12.30
2019-03-27T21:25:15.360Z,12.30
2019-03-27T21:27:44.149Z,12.30
2019-03-27T21:30:12.987Z,12.40
2019-03-27T21:32:41.899Z,12.30
2019-03-27T21:35:10.852Z,12.30
2019-03-27T21:37:40.187Z,12.40
2019-03-27T21:40:09.166Z,12.30
2019-03-27T21:42:38.065Z,12.30
2019-03-27T21:45:08.940Z,12.20
2019-03-27T21:47:37.840Z,12.10
2019-03-27T21:50:07.925Z,12.10
2019-03-27T21:52:36.845Z,12.20
2019-03-27T21:55:06.835Z,12.30
2019-03-27T21:57:35.745Z,12.30
2019-03-27T22:00:05.983Z,12.40
2019-03-27T22:02:34.886Z,12.60
2019-03-27T22:05:04.529Z,12.60
2019-03-27T22:07:33.763Z,12.60
2019-03-27T22:10:02.961Z,12.70
2019-03-27T22:12:31.858Z,12.60
2019-03-27T22:15:00.793Z,12.40
2019-03-27T22:17:29.697Z,12.30
2019-03-27T22:19:58.594Z,12.20
2019-03-27T22:22:27.524Z,12.20
2019-03-27T22:24:56.716Z,12.30
2019-03-27T22:27:25.915Z,12.40
2019-03-27T22:29:54.923Z,12.60
2019-03-27T22:32:23.834Z,12.30
2019-03-27T22:34:52.756Z,12.40
2019-03-27T22:37:21.702Z,12.30
2019-03-27T22:39:50.619Z,12.30
2019-03-27T22:42:19.519Z,12.30
2019-03-27T22:44:48.447Z,12.30
2019-03-27T22:47:17.671Z,12.30
2019-03-27T22:49:46.590Z,12.40
2019-03-27T22:52:15.513Z,12.40
2019-03-27T22:54:44.457Z,12.40
2019-03-27T22:57:13.365Z,12.30
2019-03-27T22:59:42.308Z,12.40
2019-03-27T23:02:11.215Z,12.30
2019-03-27T23:04:40.442Z,12.30
2019-03-27T23:07:09.368Z,12.30
2019-03-27T23:09:38.623Z,12.20
2019-03-27T23:12:07.818Z,12.20
2019-03-27T23:14:36.778Z,12.30
2019-03-27T23:17:05.688Z,12.30
2019-03-27T23:19:34.582Z,12.40
2019-03-27T23:22:03.523Z,12.40
2019-03-27T23:24:32.418Z,12.40
2019-03-27T23:27:01.315Z,12.40
2019-03-27T23:29:30.247Z,12.30
2019-03-27T23:31:59.141Z,12.20
2019-03-27T23:34:28.033Z,12.30
2019-03-27T23:36:56.978Z,12.30
2019-03-27T23:39:25.932Z,12.20
2019-03-27T23:41:54.825Z,12.10
2019-03-27T23:44:24.053Z,12.00
2019-03-27T23:46:53.023Z,12.00
2019-03-27T23:49:21.937Z,12.10
2019-03-27T23:51:50.873Z,12.20
2019-03-27T23:54:19.786Z,12.30
2019-03-27T23:56:48.765Z,12.20
2019-03-27T23:59:18.060Z,12.30
